Time;durP1;ratioP1;P1;durP2;ratioP2;P2;SDS_P1;SDS_P2;PMS_P1;PMS_P2;Temp;Humidity;BMP_temperature;BMP_pressure;BME280_temperature;BME280_humidity;BME280_pressure;Samples;Min_cycle;Max_cycle;Signal;HPM_P1;HPM_P2
2023/12/18 00:00:29;;;;;;;13.87;9.30;;;;;;;0.62;nan;101559.88;4965337;28;20333;-77
2023/12/18 00:02:54;;;;;;;17.10;10.07;;;;;;;0.66;nan;101559.03;4962948;28;20219;-77
2023/12/18 00:05:20;;;;;;;12.80;9.00;;;;;;;0.72;nan;101565.09;4964861;28;20203;-77
2023/12/18 00:07:45;;;;;;;13.90;10.03;;;;;;;0.74;nan;101556.50;4963646;28;20437;-76
2023/12/18 00:10:11;;;;;;;10.20;7.93;;;;;;;0.76;nan;101559.97;4964501;28;20265;-77
2023/12/18 00:12:36;;;;;;;14.50;9.37;;;;;;;0.79;nan;101553.97;4971430;28;20204;-76
2023/12/18 00:15:02;;;;;;;10.83;8.60;;;;;;;0.76;nan;101548.75;4969026;28;20739;-78
2023/12/18 00:17:28;;;;;;;8.00;6.80;;;;;;;0.73;nan;101548.72;4971876;28;20207;-77
2023/12/18 00:19:53;;;;;;;9.03;7.17;;;;;;;0.73;nan;101540.94;4973226;28;20462;-77
2023/12/18 00:22:19;;;;;;;10.43;7.20;;;;;;;0.73;nan;101547.03;4973787;28;20200;-77
2023/12/18 00:24:44;;;;;;;12.87;8.47;;;;;;;0.76;nan;101541.00;4972744;28;20277;-78
2023/12/18 00:27:09;;;;;;;13.63;8.77;;;;;;;0.77;nan;101542.72;4975438;28;20203;-77
2023/12/18 00:29:35;;;;;;;12.30;8.50;;;;;;;0.76;nan;101546.19;4970161;28;20200;-76
2023/12/18 00:32:00;;;;;;;19.60;8.33;;;;;;;0.73;nan;101548.72;4971724;28;20208;-77
2023/12/18 00:34:26;;;;;;;14.13;8.87;;;;;;;0.69;nan;101540.06;4972126;28;20416;-77
2023/12/18 00:36:51;;;;;;;16.57;8.70;;;;;;;0.65;nan;101538.34;4969790;28;20203;-77
2023/12/18 00:39:16;;;;;;;10.63;6.67;;;;;;;0.61;nan;101541.75;4974375;28;20253;-77
2023/12/18 00:41:42;;;;;;;9.57;7.07;;;;;;;0.57;nan;101540.00;4971379;28;20269;-77
2023/12/18 00:44:08;;;;;;;13.63;9.25;;;;;;;0.57;nan;101540.00;4976444;28;20290;-77
2023/12/18 00:46:33;;;;;;;14.63;8.50;;;;;;;0.58;nan;101537.41;4979509;28;20586;-77
2023/12/18 00:48:58;;;;;;;17.33;8.33;;;;;;;0.56;nan;101541.69;4978835;28;20808;-77
2023/12/18 00:51:24;;;;;;;12.00;7.87;;;;;;;0.56;nan;101543.41;4982578;28;20198;-77
2023/12/18 00:53:49;;;;;;;14.20;7.70;;;;;;;0.56;nan;101541.69;4985120;28;20210;-78
2023/12/18 00:56:15;;;;;;;11.70;7.23;;;;;;;0.56;nan;101541.69;4984794;28;20208;-77
2023/12/18 00:58:40;;;;;;;11.93;8.00;;;;;;;0.60;nan;101537.44;4968954;28;20766;-77
2023/12/18 01:01:06;;;;;;;7.93;6.77;;;;;;;0.61;nan;101540.00;4985501;28;20203;-76
2023/12/18 01:03:31;;;;;;;9.60;7.17;;;;;;;0.63;nan;101537.44;4979715;28;20445;-76
2023/12/18 01:05:57;;;;;;;10.10;7.50;;;;;;;0.62;nan;101539.19;4983079;28;20196;-76
2023/12/18 01:08:22;;;;;;;14.53;8.10;;;;;;;0.62;nan;101544.34;4973356;28;20294;-77
2023/12/18 01:10:48;;;;;;;11.73;9.10;;;;;;;0.59;nan;101541.72;4969505;28;20576;-77
2023/12/18 01:13:13;;;;;;;10.43;7.60;;;;;;;0.55;nan;101539.97;4970268;28;20238;-76
2023/12/18 01:15:38;;;;;;;13.10;8.40;;;;;;;0.48;nan;101533.00;4970872;28;20199;-76
2023/12/18 01:18:04;;;;;;;12.90;7.60;;;;;;;0.50;nan;101533.88;4977529;28;20610;-78
2023/12/18 01:20:32;;;;;;;7.70;6.70;;;;;;;0.52;nan;101527.00;4971113;28;20196;-76
2023/12/18 01:22:57;;;;;;;9.55;8.13;;;;;;;0.53;nan;101527.88;4978945;28;20199;-77
2023/12/18 01:25:23;;;;;;;11.03;7.23;;;;;;;0.54;nan;101525.31;4980231;28;20196;-78
2023/12/18 01:27:49;;;;;;;11.57;7.23;;;;;;;0.52;nan;101534.78;4982691;28;20196;-76
2023/12/18 01:30:14;;;;;;;16.50;9.20;;;;;;;0.49;nan;101526.09;4976350;28;20841;-77
2023/12/18 01:32:40;;;;;;;30.40;16.03;;;;;;;0.46;nan;101537.31;4980364;28;20459;-77
2023/12/18 01:35:05;;;;;;;23.60;14.97;;;;;;;0.43;nan;101532.09;4976719;28;20200;-77
2023/12/18 01:37:31;;;;;;;20.00;14.53;;;;;;;0.44;nan;101541.59;4982140;28;20570;-76
2023/12/18 01:39:57;;;;;;;20.27;12.13;;;;;;;0.47;nan;101536.44;4969048;28;20202;-76
2023/12/18 01:42:23;;;;;;;20.90;11.70;;;;;;;0.52;nan;101533.91;4972839;28;20457;-77
2023/12/18 01:44:48;;;;;;;18.33;9.93;;;;;;;0.53;nan;101527.88;4970256;28;20238;-77
2023/12/18 01:47:15;;;;;;;12.27;9.23;;;;;;;0.51;nan;101524.41;4968966;28;20223;-77
2023/12/18 01:49:41;;;;;;;12.82;9.60;;;;;;;0.50;nan;101533.03;4968412;28;20210;-77
2023/12/18 01:52:07;;;;;;;12.15;8.35;;;;;;;0.50;nan;101533.03;4969211;28;20227;-77
2023/12/18 01:54:33;;;;;;;12.50;8.18;;;;;;;0.43;nan;101526.91;4966712;28;20294;-77
2023/12/18 01:57:00;;;;;;;11.17;8.80;;;;;;;0.38;nan;101523.47;4967665;28;20286;-76
2023/12/18 01:59:26;;;;;;;14.32;9.93;;;;;;;0.38;nan;101518.28;4968604;28;20457;-77
2023/12/18 02:01:52;;;;;;;11.00;8.47;;;;;;;0.40;nan;101514.84;4967563;28;20196;-77
2023/12/18 02:04:19;;;;;;;12.63;8.50;;;;;;;0.43;nan;101506.25;4965714;28;20199;-77
2023/12/18 02:06:45;;;;;;;17.00;9.60;;;;;;;0.46;nan;101500.22;4975750;28;20210;-78
2023/12/18 02:09:11;;;;;;;9.00;8.07;;;;;;;0.46;nan;101495.06;4979171;28;20222;-77
2023/12/18 02:11:37;;;;;;;9.70;7.65;;;;;;;0.47;nan;101500.25;4982430;28;20900;-77
2023/12/18 02:14:02;;;;;;;11.00;7.70;;;;;;;0.50;nan;101496.81;4981165;28;20414;-77
2023/12/18 02:16:28;;;;;;;15.03;10.10;;;;;;;0.51;nan;101486.47;4979280;28;20575;-77
2023/12/18 02:18:54;;;;;;;10.37;7.10;;;;;;;0.53;nan;101486.50;4980880;28;20199;-77
2023/12/18 02:21:20;;;;;;;9.30;7.70;;;;;;;0.52;nan;101480.47;4983274;28;20203;-77
2023/12/18 02:23:47;;;;;;;13.10;10.85;;;;;;;0.48;nan;101475.25;4982818;28;20217;-77
2023/12/18 02:26:13;;;;;;;10.80;7.85;;;;;;;0.46;nan;101480.44;4979043;28;20191;-76
2023/12/18 02:28:38;;;;;;;12.27;8.25;;;;;;;0.48;nan;101485.59;4980377;28;20255;-77
2023/12/18 02:31:05;;;;;;;14.43;9.23;;;;;;;0.48;nan;101489.03;4984118;28;20211;-77
2023/12/18 02:33:31;;;;;;;11.48;8.25;;;;;;;0.41;nan;101485.56;4979580;28;20222;-77
2023/12/18 02:35:57;;;;;;;10.70;8.50;;;;;;;0.36;nan;101483.78;4978952;28;20200;-77
2023/12/18 02:38:22;;;;;;;6.57;5.73;;;;;;;0.32;nan;101472.53;4978280;28;20183;-77
2023/12/18 02:40:47;;;;;;;15.07;8.20;;;;;;;0.35;nan;101466.53;4982221;28;20747;-78
2023/12/18 02:43:13;;;;;;;11.03;7.77;;;;;;;0.35;nan;101467.44;4978596;28;20335;-77
2023/12/18 02:45:38;;;;;;;13.40;10.07;;;;;;;0.35;nan;101464.84;4958244;28;20204;-76
2023/12/18 02:48:04;;;;;;;13.50;9.40;;;;;;;0.36;nan;101457.94;4972282;28;20204;-76
2023/12/18 02:50:30;;;;;;;16.58;10.95;;;;;;;0.35;nan;101456.19;4975227;28;20596;-76
2023/12/18 02:52:55;;;;;;;18.40;12.60;;;;;;;0.37;nan;101464.84;4975483;28;20200;-76
2023/12/18 02:55:20;;;;;;;14.33;10.20;;;;;;;0.37;nan;101464.84;4977920;28;20245;-77
2023/12/18 02:57:46;;;;;;;15.43;10.50;;;;;;;0.38;nan;101459.69;4974891;28;20254;-76
2023/12/18 03:00:12;;;;;;;12.83;9.93;;;;;;;0.38;nan;101457.09;4975216;28;20660;-76
2023/12/18 03:02:38;;;;;;;17.20;8.53;;;;;;;0.39;nan;101468.31;4975226;28;20466;-76
2023/12/18 03:05:04;;;;;;;13.10;8.18;;;;;;;0.37;nan;101460.53;4974579;28;20200;-76
2023/12/18 03:07:29;;;;;;;15.15;8.23;;;;;;;0.34;nan;101464.81;4967878;28;20180;-76
2023/12/18 03:09:55;;;;;;;12.93;7.80;;;;;;;0.35;nan;101466.53;4973502;28;20545;-77
2023/12/18 03:12:20;;;;;;;10.37;7.67;;;;;;;0.36;nan;101457.94;4975488;28;20208;-76
2023/12/18 03:14:46;;;;;;;12.80;8.53;;;;;;;0.32;nan;101451.88;4970658;28;20711;-77
2023/12/18 03:17:11;;;;;;;14.80;7.90;;;;;;;0.35;nan;101451.03;4974817;28;20291;-76
2023/12/18 03:19:36;;;;;;;10.67;8.30;;;;;;;0.38;nan;101449.34;4970288;28;20203;-77
2023/12/18 03:22:02;;;;;;;9.20;8.23;;;;;;;0.40;nan;101446.75;4975289;28;20202;-77
2023/12/18 03:24:27;;;;;;;12.57;9.43;;;;;;;0.39;nan;101445.03;4973068;28;20203;-76
2023/12/18 03:26:53;;;;;;;10.23;8.17;;;;;;;0.31;nan;101438.94;4973214;28;20204;-76
2023/12/18 03:29:18;;;;;;;13.10;8.10;;;;;;;0.26;nan;101441.47;4970803;28;20199;-76
2023/12/18 03:31:43;;;;;;;13.37;8.47;;;;;;;0.24;nan;101435.44;4972505;28;20253;-76
2023/12/18 03:34:09;;;;;;;10.90;7.37;;;;;;;0.25;nan;101436.31;4970690;28;20210;-76
2023/12/18 03:36:34;;;;;;;9.30;8.20;;;;;;;0.26;nan;101435.47;4962516;28;20199;-76
2023/12/18 03:38:59;;;;;;;13.77;8.00;;;;;;;0.28;nan;101444.97;4965153;28;20872;-76
2023/12/18 03:41:25;;;;;;;14.20;10.03;;;;;;;0.31;nan;101450.16;4965305;28;20268;-76
2023/12/18 03:43:51;;;;;;;10.87;9.20;;;;;;;0.29;nan;101440.66;5012738;23;20265;-83
2023/12/18 03:46:20;;;;;;;14.73;8.68;;;;;;;0.26;nan;101445.78;4988433;28;20213;-83
2023/12/18 03:48:48;;;;;;;11.30;7.55;;;;;;;0.22;nan;101447.50;5003158;28;20199;-83
2023/12/18 03:51:15;;;;;;;12.00;8.98;;;;;;;0.19;nan;101447.47;5005922;28;20757;-83
2023/12/18 03:53:44;;;;;;;13.65;9.15;;;;;;;0.19;nan;101450.06;5004467;28;20720;-82
2023/12/18 03:56:13;;;;;;;12.32;8.50;;;;;;;0.19;nan;101440.59;5006770;28;20203;-84
2023/12/18 03:58:45;;;;;;;14.38;9.50;;;;;;;0.19;nan;101437.16;5004760;28;20992;-83
2023/12/18 04:01:11;;;;;;;14.93;8.10;;;;;;;0.20;nan;101431.09;5007101;28;20221;-84
2023/12/18 04:03:40;;;;;;;17.98;9.82;;;;;;;0.19;nan;101430.25;5007211;28;20213;-84
2023/12/18 04:06:09;;;;;;;11.85;9.35;;;;;;;0.19;nan;101432.84;5007884;28;20201;-83
2023/12/18 04:08:44;;;;;;;14.57;12.23;;;;;;;0.22;nan;101432.84;5010410;28;20443;-84
2023/12/18 04:11:15;;;;;;;14.48;10.45;;;;;;;0.20;nan;101439.72;5000572;28;21025;-85
2023/12/18 04:13:47;;;;;;;15.38;10.73;;;;;;;0.15;nan;101428.47;5012368;28;20198;-85
2023/12/18 04:16:13;;;;;;;14.80;9.52;;;;;;;0.10;nan;101430.16;5013235;28;20402;-83
2023/12/18 04:18:45;;;;;;;12.40;8.95;;;;;;;0.07;nan;101437.88;5006168;28;20218;-83
2023/12/18 04:21:11;;;;;;;14.98;10.23;;;;;;;0.05;nan;101426.66;5008561;28;20760;-83
2023/12/18 04:23:37;;;;;;;17.63;11.57;;;;;;;0.01;nan;101429.22;5004595;28;20202;-83
2023/12/18 04:26:03;;;;;;;17.10;11.25;;;;;;;-0.02;nan;101430.91;5012171;28;20862;-83
2023/12/18 04:28:32;;;;;;;15.48;9.32;;;;;;;-0.04;nan;101437.78;5013826;28;20328;-82
2023/12/18 04:31:01;;;;;;;12.85;10.48;;;;;;;-0.04;nan;101434.34;5015416;28;20686;-84
2023/12/18 04:33:29;;;;;;;12.80;8.43;;;;;;;0.00;nan;101433.53;5009618;28;20411;-81
2023/12/18 04:35:55;;;;;;;19.57;11.20;;;;;;;0.05;nan;101425.81;5009669;28;20214;-84
2023/12/18 04:38:21;;;;;;;17.25;13.07;;;;;;;0.10;nan;101424.13;5011404;28;20439;-83
2023/12/18 04:40:47;;;;;;;17.05;10.85;;;;;;;0.13;nan;101425.00;5009444;28;21053;-83
2023/12/18 04:43:13;;;;;;;13.98;9.88;;;;;;;0.17;nan;101425.91;5006868;28;20197;-83
2023/12/18 04:45:39;;;;;;;17.13;10.63;;;;;;;0.19;nan;101422.50;5008620;28;20616;-83
2023/12/18 04:48:08;;;;;;;17.63;9.70;;;;;;;0.19;nan;101417.31;5007026;28;20331;-84
2023/12/18 04:50:35;;;;;;;21.15;12.02;;;;;;;0.16;nan;101425.06;5012309;28;20289;-84
2023/12/18 04:53:01;;;;;;;16.50;11.70;;;;;;;0.08;nan;101420.66;5016365;28;20469;-82
2023/12/18 04:55:27;;;;;;;16.60;10.88;;;;;;;0.01;nan;101426.66;5016143;28;20202;-83
2023/12/18 04:57:53;;;;;;;15.23;10.37;;;;;;;-0.07;nan;101422.25;5014937;28;20229;-85
2023/12/18 05:00:22;;;;;;;19.80;14.20;;;;;;;-0.12;nan;101428.25;5013011;28;20532;-85
2023/12/18 05:02:48;;;;;;;25.55;14.98;;;;;;;-0.16;nan;101418.72;5011792;28;20206;-84
2023/12/18 05:05:14;;;;;;;14.60;11.52;;;;;;;-0.19;nan;101413.53;5014069;28;20509;-83
2023/12/18 05:07:40;;;;;;;16.25;12.43;;;;;;;-0.19;nan;101416.09;5010815;28;20194;-82
2023/12/18 05:10:07;;;;;;;15.90;11.50;;;;;;;-0.18;nan;101413.56;5010099;28;20194;-85
2023/12/18 05:12:37;;;;;;;14.93;9.60;;;;;;;-0.15;nan;101415.31;5011054;28;20206;-84
2023/12/18 05:15:13;;;;;;;17.42;10.10;;;;;;;-0.12;nan;101421.34;5008515;28;20202;-84
2023/12/18 05:17:39;;;;;;;14.48;8.63;;;;;;;-0.09;nan;101423.97;5007499;28;20198;-84
2023/12/18 05:20:12;;;;;;;11.65;7.80;;;;;;;-0.07;nan;101419.69;5000945;28;20432;-84
2023/12/18 05:22:42;;;;;;;11.30;8.52;;;;;;;-0.07;nan;101416.25;5004135;28;20973;-84
2023/12/18 05:25:15;;;;;;;14.45;10.32;;;;;;;-0.12;nan;101412.75;5005912;28;20207;-83
2023/12/18 05:27:44;;;;;;;13.88;8.15;;;;;;;-0.14;nan;101411.84;5004217;28;20225;-84
2023/12/18 05:30:11;;;;;;;13.13;8.57;;;;;;;-0.17;nan;101410.09;5010179;28;20207;-83
2023/12/18 05:32:39;;;;;;;12.43;8.73;;;;;;;-0.18;nan;101413.56;5013020;28;20234;-84
2023/12/18 05:35:06;;;;;;;9.85;7.00;;;;;;;-0.16;nan;101417.03;5019564;28;20203;-85
2023/12/18 05:37:34;;;;;;;16.17;11.10;;;;;;;-0.15;nan;101418.75;5015868;28;20195;-83
2023/12/18 05:40:00;;;;;;;18.40;12.10;;;;;;;-0.14;nan;101420.47;5001923;28;20195;-84
2023/12/18 05:42:29;;;;;;;14.40;8.15;;;;;;;-0.12;nan;101412.75;5012370;28;20201;-82
2023/12/18 05:44:55;;;;;;;15.52;11.07;;;;;;;-0.13;nan;101416.19;5008786;28;20222;-82
2023/12/18 05:47:21;;;;;;;16.00;8.27;;;;;;;-0.13;nan;101418.78;5010615;28;20399;-84
2023/12/18 05:49:49;;;;;;;15.63;10.63;;;;;;;-0.14;nan;101415.31;5010461;28;20901;-83
2023/12/18 05:52:15;;;;;;;14.90;9.15;;;;;;;-0.13;nan;101424.78;5011085;28;20710;-81
2023/12/18 05:54:41;;;;;;;13.90;10.90;;;;;;;-0.10;nan;101421.38;5011393;28;20280;-83
2023/12/18 05:57:08;;;;;;;10.57;9.05;;;;;;;-0.10;nan;101429.13;5013267;28;20265;-84
2023/12/18 05:59:42;;;;;;;14.68;9.85;;;;;;;-0.09;nan;101430.84;5009146;28;20199;-84
2023/12/18 06:02:08;;;;;;;12.88;8.40;;;;;;;-0.09;nan;101423.97;5011530;28;20612;-84
2023/12/18 06:04:34;;;;;;;11.03;7.60;;;;;;;-0.10;nan;101431.72;5008565;28;20734;-84
2023/12/18 06:07:01;;;;;;;13.82;8.43;;;;;;;-0.13;nan;101421.34;5010048;28;20442;-83
2023/12/18 06:09:27;;;;;;;10.20;7.88;;;;;;;-0.19;nan;101422.13;5014450;28;20254;-85
2023/12/18 06:11:53;;;;;;;10.48;6.57;;;;;;;-0.18;nan;101412.69;5012028;28;20674;-83
2023/12/18 06:14:19;;;;;;;15.63;7.70;;;;;;;-0.17;nan;101419.59;4988693;28;20215;-85
2023/12/18 06:16:45;;;;;;;12.93;9.65;;;;;;;-0.17;nan;101411.84;5006027;28;20268;-85
2023/12/18 06:19:11;;;;;;;18.40;8.50;;;;;;;-0.18;nan;101402.38;5005290;28;20203;-84
2023/12/18 06:21:39;;;;;;;13.60;8.40;;;;;;;-0.21;nan;101403.19;5002339;28;20551;-85
2023/12/18 06:24:06;;;;;;;12.98;10.00;;;;;;;-0.21;nan;101405.78;5009569;28;20229;-83
2023/12/18 06:26:32;;;;;;;12.38;9.95;;;;;;;-0.20;nan;101411.81;5003745;28;20233;-85
2023/12/18 06:29:01;;;;;;;14.27;10.90;;;;;;;-0.18;nan;101410.13;4999143;28;20207;-83
2023/12/18 06:31:27;;;;;;;16.73;10.00;;;;;;;-0.14;nan;101414.44;5009007;28;20271;-84
2023/12/18 06:33:59;;;;;;;12.23;8.57;;;;;;;-0.12;nan;101410.16;5001557;28;20277;-85
2023/12/18 06:36:25;;;;;;;14.57;10.55;;;;;;;-0.11;nan;101411.88;5006807;28;20484;-83
2023/12/18 06:38:55;;;;;;;12.70;10.93;;;;;;;-0.10;nan;101413.63;5007607;28;20214;-83
2023/12/18 06:41:21;;;;;;;13.93;10.77;;;;;;;-0.11;nan;101409.28;5009782;28;20283;-83
2023/12/18 06:43:48;;;;;;;12.52;9.73;;;;;;;-0.13;nan;101411.03;5011503;28;20249;-86
2023/12/18 06:46:14;;;;;;;11.18;8.60;;;;;;;-0.13;nan;101411.03;5008120;28;20203;-82
2023/12/18 06:48:43;;;;;;;19.10;12.05;;;;;;;-0.11;nan;101411.88;5010108;28;20187;-84
2023/12/18 06:51:09;;;;;;;16.05;11.43;;;;;;;-0.12;nan;101410.16;5013223;28;20540;-84
2023/12/18 06:53:35;;;;;;;13.82;10.50;;;;;;;-0.13;nan;101411.88;5013974;28;20206;-83
2023/12/18 06:56:03;;;;;;;13.98;10.85;;;;;;;-0.16;nan;101406.69;5012334;28;20316;-85
2023/12/18 06:58:32;;;;;;;15.02;11.35;;;;;;;-0.17;nan;101411.84;5013600;28;20195;-83
2023/12/18 07:01:02;;;;;;;14.07;9.60;;;;;;;-0.18;nan;101412.69;5012087;28;20204;-84
2023/12/18 07:03:31;;;;;;;18.85;11.20;;;;;;;-0.19;nan;101405.78;5008790;28;20273;-83
2023/12/18 07:06:07;;;;;;;18.10;11.70;;;;;;;-0.19;nan;101406.63;5006156;28;20550;-84
2023/12/18 07:08:39;;;;;;;22.85;14.98;;;;;;;-0.21;nan;101413.53;5005530;28;20726;-84
2023/12/18 07:11:14;;;;;;;17.73;13.65;;;;;;;-0.19;nan;101418.69;5004324;28;20621;-82
2023/12/18 07:13:43;;;;;;;16.00;11.23;;;;;;;-0.19;nan;101414.38;5001471;28;20249;-84
2023/12/18 07:16:20;;;;;;;15.38;10.00;;;;;;;-0.15;nan;101402.38;5001961;28;20230;-83
2023/12/18 07:18:48;;;;;;;13.27;9.38;;;;;;;-0.14;nan;101404.09;5005417;28;20211;-85
2023/12/18 07:21:15;;;;;;;12.07;9.15;;;;;;;-0.14;nan;101401.53;5001232;28;20222;-83
2023/12/18 07:23:42;;;;;;;12.50;9.52;;;;;;;-0.15;nan;101399.81;4996085;28;20198;-84
2023/12/18 07:26:12;;;;;;;20.35;13.68;;;;;;;-0.13;nan;101403.28;5000424;28;20218;-83
2023/12/18 07:28:39;;;;;;;17.67;11.20;;;;;;;-0.13;nan;101411.03;4999278;28;20666;-83
2023/12/18 07:31:06;;;;;;;13.98;10.60;;;;;;;-0.13;nan;101409.31;4998183;28;20312;-85
2023/12/18 07:33:32;;;;;;;11.38;8.23;;;;;;;-0.12;nan;101407.59;4997480;28;20215;-83
2023/12/18 07:35:59;;;;;;;14.13;10.45;;;;;;;-0.12;nan;101411.03;4991955;28;20868;-82
2023/12/18 07:38:25;;;;;;;13.93;10.85;;;;;;;-0.11;nan;101411.88;4992156;28;20305;-82
2023/12/18 07:40:51;;;;;;;15.93;9.60;;;;;;;-0.09;nan;101416.22;4990613;28;20203;-82
2023/12/18 07:43:17;;;;;;;16.63;11.20;;;;;;;-0.08;nan;101412.78;4993776;28;20337;-82
2023/12/18 07:45:43;;;;;;;17.42;11.00;;;;;;;-0.06;nan;101403.31;4990666;28;20215;-83
2023/12/18 07:48:09;;;;;;;14.73;10.80;;;;;;;-0.04;nan;101411.09;5002368;28;20286;-81
2023/12/18 07:50:35;;;;;;;18.43;11.33;;;;;;;-0.03;nan;101416.28;4998021;28;20293;-82
2023/12/18 07:53:00;;;;;;;14.53;10.63;;;;;;;-0.01;nan;101409.41;4997496;28;20505;-83
2023/12/18 07:55:26;;;;;;;14.60;11.03;;;;;;;0.03;nan;101407.72;5000202;28;20267;-82
2023/12/18 07:57:51;;;;;;;14.13;9.80;;;;;;;0.07;nan;101409.47;4998875;28;20198;-82
2023/12/18 08:00:17;;;;;;;34.30;31.00;;;;;;;0.09;nan;101402.59;5000072;28;20578;-82
2023/12/18 08:02:43;;;;;;;16.35;9.57;;;;;;;0.12;nan;101405.19;5001854;28;20675;-82
2023/12/18 08:05:09;;;;;;;12.10;10.00;;;;;;;0.13;nan;101414.66;5005070;28;20289;-82
2023/12/18 08:07:35;;;;;;;22.37;11.73;;;;;;;0.17;nan;101413.84;5005528;28;20854;-82
2023/12/18 08:10:00;;;;;;;14.03;9.90;;;;;;;0.20;nan;101405.25;5010196;28;20229;-82
2023/12/18 08:12:26;;;;;;;15.07;10.23;;;;;;;0.24;nan;101417.34;5007494;28;20351;-82
2023/12/18 08:14:53;;;;;;;13.50;10.17;;;;;;;0.28;nan;101416.53;5001730;28;20764;-83
2023/12/18 08:17:19;;;;;;;15.65;12.38;;;;;;;0.32;nan;101414.81;4995997;28;20219;-81
2023/12/18 08:19:51;;;;;;;14.25;11.75;;;;;;;0.36;nan;101417.44;4998859;28;20203;-81
2023/12/18 08:22:17;;;;;;;15.43;11.55;;;;;;;0.40;nan;101419.19;4998519;28;20198;-83
2023/12/18 08:24:43;;;;;;;14.97;7.80;;;;;;;0.45;nan;101424.41;4996841;28;20580;-82
2023/12/18 08:27:08;;;;;;;10.67;9.60;;;;;;;0.50;nan;101421.84;4997904;28;20206;-83
2023/12/18 08:29:35;;;;;;;15.13;9.38;;;;;;;0.54;nan;101423.59;4997737;28;20420;-84
2023/12/18 08:32:01;;;;;;;13.73;9.90;;;;;;;0.58;nan;101433.97;4999196;28;20206;-82
2023/12/18 08:34:38;;;;;;;11.97;8.97;;;;;;;0.60;nan;101424.50;4997469;28;20465;-82
2023/12/18 08:37:06;;;;;;;14.77;8.10;;;;;;;0.65;nan;101421.97;4992347;28;20781;-82
2023/12/18 08:39:34;;;;;;;22.90;10.10;;;;;;;0.70;nan;101420.25;4999699;28;20679;-81
2023/12/18 08:42:00;;;;;;;11.25;8.90;;;;;;;0.74;nan;101423.72;4999245;28;20198;-82
2023/12/18 08:44:26;;;;;;;15.67;10.20;;;;;;;0.81;nan;101421.19;4995947;28;20715;-82
2023/12/18 08:46:54;;;;;;;12.63;9.60;;;;;;;0.90;nan;101419.50;4995195;28;20209;-82
2023/12/18 08:49:20;;;;;;;13.93;8.05;;;;;;;0.95;nan;101408.31;4996191;28;20453;-81
2023/12/18 08:51:46;;;;;;;17.90;9.13;;;;;;;1.08;nan;101404.94;4999398;28;20203;-81
2023/12/18 08:54:11;;;;;;;13.40;9.37;;;;;;;1.53;nan;101397.28;4998650;28;20202;-82
2023/12/18 08:56:37;;;;;;;14.77;8.15;;;;;;;2.55;nan;101398.19;4999625;28;20453;-80
2023/12/18 08:59:03;;;;;;;12.77;7.90;;;;;;;3.81;nan;101393.28;4998981;28;20203;-81
2023/12/18 09:01:32;;;;;;;9.57;7.87;;;;;;;5.10;nan;101387.69;4998278;28;20879;-83
2023/12/18 09:07:03;;;;;;;8.02;6.15;;;;;;;7.87;nan;101370.44;4984565;28;20713;-82
2023/12/18 09:09:29;;;;;;;15.53;6.73;;;;;;;8.50;nan;101378.50;4997393;28;20190;-82
2023/12/18 09:11:55;;;;;;;11.00;6.60;;;;;;;8.61;nan;101379.94;5002483;28;21044;-82
2023/12/18 09:14:23;;;;;;;13.90;6.63;;;;;;;8.91;nan;101379.09;5003066;28;20233;-82
2023/12/18 09:16:49;;;;;;;8.98;6.20;;;;;;;9.07;nan;101386.50;4999703;28;20219;-82
2023/12/18 09:19:16;;;;;;;9.37;6.23;;;;;;;8.70;nan;101380.59;4999480;28;20199;-83
2023/12/18 09:21:42;;;;;;;10.60;7.57;;;;;;;8.20;nan;101386.22;4996538;28;20477;-83
2023/12/18 09:24:09;;;;;;;9.47;7.97;;;;;;;7.71;nan;101390.88;5002444;28;20199;-83
2023/12/18 09:26:35;;;;;;;15.15;8.05;;;;;;;7.40;nan;101388.09;5003649;28;20288;-82
2023/12/18 09:29:01;;;;;;;9.40;6.90;;;;;;;7.11;nan;101393.09;5008485;28;20860;-84
2023/12/18 09:31:26;;;;;;;12.93;9.13;;;;;;;6.70;nan;101385.19;4999884;28;20206;-81
2023/12/18 09:33:52;;;;;;;12.40;9.70;;;;;;;6.31;nan;101397.22;5000388;28;20212;-84
2023/12/18 09:36:18;;;;;;;18.60;15.50;;;;;;;6.35;nan;101391.91;5000038;28;20195;-83
2023/12/18 09:38:44;;;;;;;13.07;8.73;;;;;;;6.52;nan;101393.34;5007039;28;20199;-84
2023/12/18 09:41:20;;;;;;;8.93;7.22;;;;;;;6.52;nan;101398.59;5002589;28;20229;-81
2023/12/18 09:43:46;;;;;;;15.88;10.25;;;;;;;6.32;nan;101393.69;5018868;23;20594;-77
2023/12/18 09:46:13;;;;;;;11.83;7.50;;;;;;;6.17;nan;101390.47;4936310;28;20286;-76
2023/12/18 09:48:39;;;;;;;11.70;8.60;;;;;;;6.25;nan;101387.75;4955542;28;20200;-76
2023/12/18 09:51:10;;;;;;;11.27;8.20;;;;;;;6.96;nan;101386.41;4966196;28;20549;-76
2023/12/18 09:53:36;;;;;;;24.92;16.33;;;;;;;8.06;nan;101368.25;4964353;28;20204;-76
2023/12/18 09:56:02;;;;;;;25.50;17.00;;;;;;;9.11;nan;101363.69;4965935;28;20861;-77
2023/12/18 09:58:29;;;;;;;15.77;9.77;;;;;;;9.91;nan;101375.19;4965655;28;20988;-77
2023/12/18 10:00:55;;;;;;;12.20;9.38;;;;;;;10.54;nan;101366.97;4963857;28;20338;-77
2023/12/18 10:03:20;;;;;;;12.55;8.75;;;;;;;10.91;nan;101358.63;4964724;28;20238;-77
2023/12/18 10:05:46;;;;;;;13.03;8.50;;;;;;;11.15;nan;101358.59;4964478;28;20306;-77
2023/12/18 10:08:11;;;;;;;12.87;10.07;;;;;;;11.41;nan;101362.88;4962959;28;20195;-76
2023/12/18 10:10:36;;;;;;;9.97;8.37;;;;;;;11.53;nan;101362.41;4963659;28;20200;-77
2023/12/18 10:13:05;;;;;;;16.20;10.83;;;;;;;11.45;nan;101346.03;4963961;28;20561;-77
2023/12/18 10:15:32;;;;;;;14.32;11.15;;;;;;;11.11;nan;101357.00;4963693;28;20304;-77
2023/12/18 10:17:58;;;;;;;14.77;10.75;;;;;;;10.63;nan;101358.75;4959396;28;20874;-78
2023/12/18 10:20:23;;;;;;;10.77;9.10;;;;;;;10.11;nan;101365.78;4957781;28;21289;-78
2023/12/18 10:22:48;;;;;;;12.13;9.43;;;;;;;9.61;nan;101361.25;4960209;28;20386;-78
2023/12/18 10:25:14;;;;;;;12.47;8.17;;;;;;;9.21;nan;101356.41;4965767;28;20310;-78
2023/12/18 10:27:42;;;;;;;10.20;7.90;;;;;;;8.80;nan;101354.09;4962721;28;20408;-78
2023/12/18 10:30:08;;;;;;;14.20;8.43;;;;;;;8.40;nan;101356.94;4957014;28;20207;-77
2023/12/18 10:32:37;;;;;;;11.52;10.25;;;;;;;8.02;nan;101347.41;4961389;28;20207;-77
2023/12/18 10:35:04;;;;;;;10.73;8.52;;;;;;;7.68;nan;101343.00;4961366;28;20207;-77
2023/12/18 10:37:31;;;;;;;14.48;9.30;;;;;;;7.32;nan;101354.28;4964663;28;20731;-77
2023/12/18 10:40:06;;;;;;;13.65;10.02;;;;;;;6.93;nan;101345.53;4968303;28;20275;-77
2023/12/18 10:42:36;;;;;;;12.45;9.35;;;;;;;6.60;nan;101347.94;4965281;28;20294;-77
2023/12/18 10:45:03;;;;;;;13.43;9.63;;;;;;;6.41;nan;101343.97;4965274;28;21139;-76
2023/12/18 10:47:30;;;;;;;13.48;8.38;;;;;;;6.25;nan;101348.59;4963390;28;20210;-77
2023/12/18 10:50:01;;;;;;;12.15;8.23;;;;;;;6.14;nan;101347.94;4966748;28;20679;-76
2023/12/18 10:52:32;;;;;;;14.05;8.35;;;;;;;6.05;nan;101342.84;4964640;28;20310;-76
2023/12/18 10:55:05;;;;;;;11.18;7.80;;;;;;;5.94;nan;101336.09;4968782;28;20809;-77
2023/12/18 10:57:33;;;;;;;13.60;9.30;;;;;;;5.79;nan;101331.09;4966415;28;20406;-77
2023/12/18 10:59:59;;;;;;;12.23;7.88;;;;;;;5.68;nan;101326.03;4964869;28;20218;-76
2023/12/18 11:02:26;;;;;;;12.30;7.90;;;;;;;5.60;nan;101324.44;4967798;28;20688;-78
2023/12/18 11:04:54;;;;;;;14.77;8.38;;;;;;;5.57;nan;101322.75;4968595;28;20470;-77
2023/12/18 11:07:20;;;;;;;13.07;8.63;;;;;;;5.57;nan;101311.47;4972239;28;20634;-76
2023/12/18 11:09:46;;;;;;;12.77;8.30;;;;;;;5.55;nan;101316.69;4969126;28;20514;-77
2023/12/18 11:12:15;;;;;;;13.18;9.35;;;;;;;5.54;nan;101322.81;4968792;28;20207;-77
2023/12/18 11:14:58;;;;;;;15.02;8.40;;;;;;;5.53;nan;101305.41;4963839;28;20576;-77
2023/12/18 11:17:37;;;;;;;15.48;7.82;;;;;;;5.52;nan;101309.78;4961891;28;20219;-76
2023/12/18 11:20:27;;;;;;;13.13;9.18;;;;;;;5.48;nan;101308.13;4963338;28;20231;-77
2023/12/18 11:22:56;;;;;;;14.05;8.00;;;;;;;5.48;nan;101305.50;4965002;28;20609;-76
2023/12/18 11:25:27;;;;;;;14.90;8.32;;;;;;;5.48;nan;101297.69;4963814;28;20211;-77
2023/12/18 11:27:53;;;;;;;11.48;7.70;;;;;;;5.50;nan;101293.28;4963604;28;20196;-76
2023/12/18 11:30:24;;;;;;;16.30;7.97;;;;;;;5.55;nan;101288.88;4960416;28;20438;-76
2023/12/18 11:32:51;;;;;;;15.13;9.50;;;;;;;5.61;nan;101287.91;4963679;28;20212;-77
2023/12/18 11:35:28;;;;;;;15.10;9.20;;;;;;;5.63;nan;101282.69;4958828;28;20246;-77
2023/12/18 11:38:01;;;;;;;12.73;9.93;;;;;;;5.66;nan;101280.03;4961870;28;20726;-76